Time;durP1;ratioP1;P1;durP2;ratioP2;P2;SDS_P1;SDS_P2;PMS_P1;PMS_P2;Temp;Humidity;BMP_temperature;BMP_pressure;BME280_temperature;BME280_humidity;BME280_pressure;Samples;Min_cycle;Max_cycle;Signal;HPM_P1;HPM_P2
2023/11/26 00:00:05;;;;;;;6.17;2.10;;;;;;;4.17;100.00;102234.03;4982629;28;20197;-67
2023/11/26 00:02:31;;;;;;;8.30;2.03;;;;;;;4.12;100.00;102222.94;4980723;28;20459;-68
2023/11/26 00:04:57;;;;;;;5.53;2.30;;;;;;;4.01;100.00;102214.97;4969014;28;20869;-67
2023/11/26 00:07:23;;;;;;;6.60;2.93;;;;;;;3.80;100.00;102183.84;4984793;28;20886;-67
2023/11/26 00:09:48;;;;;;;8.70;3.03;;;;;;;3.16;100.00;102078.38;4986108;28;20194;-67
2023/11/26 00:12:13;;;;;;;4.30;1.67;;;;;;;4.08;100.00;102210.88;4983249;28;20421;-67
2023/11/26 00:14:39;;;;;;;3.40;1.23;;;;;;;4.25;100.00;102204.19;4999681;28;20210;-67
2023/11/26 00:17:05;;;;;;;5.30;1.53;;;;;;;3.90;100.00;102153.94;4992491;28;20765;-67
2023/11/26 00:19:32;;;;;;;5.60;1.30;;;;;;;3.89;100.00;102129.19;4962503;28;20664;-67
2023/11/26 00:21:58;;;;;;;4.77;1.63;;;;;;;4.14;100.00;102201.53;4983872;28;20185;-67
2023/11/26 00:24:23;;;;;;;5.10;1.40;;;;;;;4.06;100.00;102188.91;4983775;28;20976;-67
2023/11/26 00:26:49;;;;;;;4.80;1.40;;;;;;;3.47;100.00;102085.69;4982537;28;20193;-67
2023/11/26 00:29:14;;;;;;;3.70;1.40;;;;;;;4.17;100.00;102172.97;4988804;28;20616;-67
2023/11/26 00:31:40;;;;;;;4.87;1.73;;;;;;;4.14;100.00;102159.06;4984537;28;20182;-67
2023/11/26 00:34:07;;;;;;;4.70;1.63;;;;;;;4.02;100.00;102139.66;4986302;28;20221;-69
2023/11/26 00:36:33;;;;;;;7.03;1.70;;;;;;;4.05;100.00;102155.34;4981391;28;20196;-69
2023/11/26 00:38:58;;;;;;;5.37;1.80;;;;;;;2.54;100.00;101917.16;5037638;23;20493;-74
2023/11/26 00:41:24;;;;;;;8.43;3.40;;;;;;;2.02;100.00;101847.09;5018269;28;20184;-74
2023/11/26 00:43:49;;;;;;;4.50;1.67;;;;;;;2.54;100.00;101950.75;5018883;28;20207;-75
2023/11/26 00:46:15;;;;;;;6.20;1.57;;;;;;;2.67;100.00;101991.25;5031585;28;20574;-75
2023/11/26 00:48:40;;;;;;;5.30;2.37;;;;;;;3.28;100.00;102099.59;5032176;28;20230;-74
2023/11/26 00:51:06;;;;;;;3.83;1.80;;;;;;;1.43;100.00;101749.38;5030557;28;20339;-74
2023/11/26 00:53:35;;;;;;;5.90;2.63;;;;;;;1.55;100.00;101802.16;5023451;28;20366;-74
2023/11/26 00:56:01;;;;;;;5.10;2.30;;;;;;;2.17;100.00;101964.16;5023564;28;20300;-74
2023/11/26 00:58:27;;;;;;;4.33;2.43;;;;;;;1.90;100.00;101904.44;5024736;28;21048;-74
2023/11/26 01:00:52;;;;;;;6.70;2.77;;;;;;;2.87;100.00;102051.47;5027358;28;20231;-74
2023/11/26 01:03:21;;;;;;;5.87;2.57;;;;;;;3.09;100.00;102100.16;5025521;28;20431;-74
2023/11/26 01:05:47;;;;;;;8.13;2.47;;;;;;;1.74;100.00;101896.84;5023675;28;20196;-74
2023/11/26 01:08:14;;;;;;;7.03;2.67;;;;;;;2.88;100.00;102084.13;5023250;28;21205;-74
2023/11/26 01:10:39;;;;;;;7.17;3.20;;;;;;;4.14;100.00;102244.03;5025386;28;20436;-73
2023/11/26 01:13:06;;;;;;;6.60;2.87;;;;;;;3.95;100.00;102226.94;5027159;28;20464;-74
2023/11/26 01:15:33;;;;;;;6.70;3.33;;;;;;;3.99;100.00;102238.13;5024270;28;20213;-74
2023/11/26 01:17:58;;;;;;;6.53;2.13;;;;;;;4.31;100.00;102262.16;5024729;28;20437;-73
2023/11/26 01:20:24;;;;;;;5.60;2.40;;;;;;;3.90;100.00;102199.06;5029500;28;20430;-74
2023/11/26 01:22:49;;;;;;;8.50;2.30;;;;;;;4.20;100.00;102228.47;5031134;28;20630;-74
2023/11/26 01:25:14;;;;;;;6.07;1.70;;;;;;;4.52;100.00;102260.41;5028287;28;20204;-74
2023/11/26 01:27:40;;;;;;;7.97;1.60;;;;;;;4.60;100.00;102249.16;5028135;28;20177;-74
2023/11/26 01:30:06;;;;;;;5.37;1.67;;;;;;;4.21;100.00;102184.16;5040319;28;20192;-74
2023/11/26 01:32:32;;;;;;;6.83;1.77;;;;;;;4.52;100.00;102209.09;5026965;28;20188;-73
2023/11/26 01:34:58;;;;;;;9.97;1.80;;;;;;;4.38;100.00;102172.19;5025955;28;20799;-74
2023/11/26 01:37:24;;;;;;;6.97;2.70;;;;;;;4.01;100.00;102116.75;5023635;28;20793;-74
2023/11/26 01:39:49;;;;;;;4.50;1.50;;;;;;;4.26;100.00;102140.34;5026999;28;20443;-74
2023/11/26 01:42:15;;;;;;;6.87;2.13;;;;;;;4.11;100.00;102117.69;5026295;28;20191;-74
2023/11/26 01:44:40;;;;;;;7.53;1.60;;;;;;;3.95;100.00;102069.47;5025301;28;20199;-74
2023/11/26 01:47:08;;;;;;;6.40;1.70;;;;;;;4.06;100.00;102103.94;5023955;28;20184;-74
2023/11/26 01:49:35;;;;;;;4.97;1.87;;;;;;;4.45;100.00;102166.22;5025809;28;20179;-74
2023/11/26 01:52:02;;;;;;;7.53;2.50;;;;;;;4.47;100.00;102176.72;5026422;28;20495;-74
2023/11/26 01:54:38;;;;;;;5.50;1.70;;;;;;;4.50;100.00;102171.16;5025179;28;20483;-74
2023/11/26 01:57:05;;;;;;;5.80;1.90;;;;;;;3.93;100.00;102082.00;5027527;28;20434;-74
2023/11/26 01:59:31;;;;;;;7.60;1.60;;;;;;;3.87;100.00;102063.94;5026868;28;20442;-73
2023/11/26 02:01:57;;;;;;;7.10;2.00;;;;;;;4.46;100.00;102170.56;5022181;28;20460;-74
2023/11/26 02:04:22;;;;;;;8.03;1.60;;;;;;;3.85;100.00;102107.38;5025028;28;20442;-73
2023/11/26 02:06:49;;;;;;;6.50;2.30;;;;;;;4.58;100.00;102181.16;5025398;28;20180;-73
2023/11/26 02:09:16;;;;;;;4.40;1.20;;;;;;;3.81;100.00;102060.78;5024989;28;20188;-74
2023/11/26 02:11:43;;;;;;;5.77;2.10;;;;;;;4.52;100.00;102178.03;5022086;28;20449;-73
2023/11/26 02:14:09;;;;;;;3.83;1.10;;;;;;;4.34;100.00;102149.47;5025199;28;20544;-74
2023/11/26 02:16:34;;;;;;;4.80;1.53;;;;;;;4.35;100.00;102141.38;5024965;28;20929;-73
2023/11/26 02:19:00;;;;;;;5.30;1.60;;;;;;;4.54;100.00;102161.94;5024065;28;20185;-74
2023/11/26 02:21:26;;;;;;;3.43;1.30;;;;;;;4.15;100.00;102081.94;5025498;28;20180;-73
2023/11/26 02:23:52;;;;;;;4.03;1.50;;;;;;;4.49;100.00;102135.78;5025698;28;20181;-73
2023/11/26 02:26:17;;;;;;;3.77;1.30;;;;;;;4.34;100.00;102106.97;5021658;28;20952;-73
2023/11/26 02:28:43;;;;;;;8.70;1.53;;;;;;;4.07;100.00;102063.97;5026046;28;20192;-74
2023/11/26 02:31:12;;;;;;;6.03;1.40;;;;;;;4.64;100.00;102146.94;5023620;28;20181;-73
2023/11/26 02:33:37;;;;;;;3.87;1.20;;;;;;;4.42;100.00;102109.84;5025619;28;20212;-73
2023/11/26 02:36:04;;;;;;;7.00;1.00;;;;;;;4.63;100.00;102125.78;5023832;28;20444;-73
2023/11/26 02:38:30;;;;;;;6.10;1.37;;;;;;;3.86;100.00;102010.00;5023083;28;20276;-74
2023/11/26 02:40:55;;;;;;;3.70;1.00;;;;;;;4.59;100.00;102101.31;5025487;28;20437;-74
2023/11/26 02:43:21;;;;;;;5.33;1.47;;;;;;;4.73;100.00;102105.47;5020077;28;20191;-73
2023/11/26 02:45:46;;;;;;;6.00;1.20;;;;;;;3.95;100.00;101992.47;5027717;28;20212;-74
2023/11/26 02:48:12;;;;;;;5.63;1.13;;;;;;;4.23;100.00;101998.97;5036585;28;20240;-73
2023/11/26 02:50:37;;;;;;;4.20;1.27;;;;;;;4.08;100.00;101980.72;5020253;28;20183;-73
2023/11/26 02:53:03;;;;;;;3.27;1.00;;;;;;;4.73;100.00;102085.03;5024929;28;20185;-73
2023/11/26 02:55:28;;;;;;;7.43;1.27;;;;;;;4.46;100.00;102032.41;5025368;28;20212;-73
2023/11/26 02:57:54;;;;;;;8.20;1.10;;;;;;;4.16;100.00;101971.25;5022644;28;20654;-74
2023/11/26 03:00:20;;;;;;;4.80;1.00;;;;;;;4.79;100.00;102050.94;5025006;28;20509;-73
2023/11/26 03:02:49;;;;;;;4.37;0.83;;;;;;;4.47;100.00;101988.94;5020542;28;20189;-73
2023/11/26 03:05:18;;;;;;;5.17;0.90;;;;;;;4.09;100.00;101917.81;5019517;28;20463;-73
2023/11/26 03:07:48;;;;;;;4.20;0.83;;;;;;;4.66;100.00;101995.34;5020227;28;20436;-73
2023/11/26 03:13:12;;;;;;;3.47;0.90;;;;;;;4.95;100.00;102051.31;5021036;28;20430;-74
2023/11/26 03:15:39;;;;;;;3.77;0.90;;;;;;;4.97;100.00;102046.69;5021721;28;20581;-74
2023/11/26 03:18:08;;;;;;;3.50;1.00;;;;;;;4.98;100.00;102057.19;5022938;28;20518;-74
2023/11/26 03:20:35;;;;;;;3.50;1.20;;;;;;;4.78;100.00;102051.91;5023411;28;20903;-73
2023/11/26 03:23:01;;;;;;;2.57;1.00;;;;;;;4.43;100.00;101999.97;5026058;28;20427;-74
2023/11/26 03:25:27;;;;;;;3.67;1.10;;;;;;;4.65;100.00;102033.50;5028195;28;20520;-73
2023/11/26 03:27:54;;;;;;;4.10;0.87;;;;;;;4.64;100.00;102027.34;5025706;28;20544;-74
2023/11/26 03:30:20;;;;;;;2.67;0.70;;;;;;;4.40;100.00;101992.25;5024521;28;20500;-74
2023/11/26 03:32:45;;;;;;;5.00;0.80;;;;;;;4.54;100.00;102015.81;5022574;28;20426;-74
2023/11/26 03:35:12;;;;;;;5.63;0.87;;;;;;;4.24;100.00;101956.34;5021935;28;20848;-73
2023/11/26 03:37:38;;;;;;;3.47;0.70;;;;;;;4.70;100.00;102036.63;5025399;28;20181;-73
2023/11/26 03:40:07;;;;;;;3.30;0.80;;;;;;;4.80;100.00;102026.88;5022869;28;20446;-73
2023/11/26 03:42:34;;;;;;;6.27;1.10;;;;;;;4.77;100.00;102045.75;5029545;28;20180;-74
2023/11/26 03:45:00;;;;;;;5.00;1.20;;;;;;;4.76;100.00;102031.63;5019733;28;20504;-74
2023/11/26 03:47:26;;;;;;;4.17;1.03;;;;;;;4.76;100.00;102047.56;5025150;28;20431;-74
2023/11/26 03:49:52;;;;;;;4.10;0.93;;;;;;;4.86;100.00;102022.84;5023128;28;20431;-73
2023/11/26 03:52:18;;;;;;;3.30;0.90;;;;;;;4.96;100.00;102039.69;5017853;28;20199;-74
2023/11/26 03:54:44;;;;;;;6.43;1.43;;;;;;;4.72;100.00;102021.38;5019575;28;20467;-74
2023/11/26 03:57:11;;;;;;;4.20;1.20;;;;;;;4.08;100.00;101930.25;5018989;28;20423;-74
2023/11/26 03:59:36;;;;;;;5.20;1.17;;;;;;;4.49;100.00;101989.66;5021968;28;20742;-73
2023/11/26 04:02:02;;;;;;;8.87;1.17;;;;;;;4.48;100.00;101990.63;5018874;28;20496;-74
2023/11/26 04:04:28;;;;;;;4.57;1.10;;;;;;;4.76;100.00;102052.88;5022211;28;20184;-74
2023/11/26 04:06:54;;;;;;;4.37;1.07;;;;;;;4.29;100.00;102001.13;5024231;28;20202;-74
2023/11/26 04:09:19;;;;;;;4.57;1.00;;;;;;;4.80;100.00;102090.66;5028150;28;20909;-73
2023/11/26 04:11:45;;;;;;;5.00;1.27;;;;;;;4.19;100.00;102009.00;5027591;28;20204;-73
2023/11/26 04:14:11;;;;;;;5.03;1.03;;;;;;;4.74;100.00;102115.13;5024479;28;20204;-73
2023/11/26 04:16:36;;;;;;;7.23;1.30;;;;;;;4.61;100.00;102139.22;5029151;28;20192;-74
2023/11/26 04:19:02;;;;;;;5.93;1.63;;;;;;;3.75;100.00;102048.03;5026810;28;20428;-73
2023/11/26 04:21:27;;;;;;;6.70;1.40;;;;;;;4.22;100.00;102132.72;5029763;28;20181;-73
2023/11/26 04:23:52;;;;;;;3.47;1.20;;;;;;;4.47;100.00;102155.47;5026944;28;20589;-73
2023/11/26 04:26:18;;;;;;;3.90;1.20;;;;;;;4.29;100.00;102110.84;5025348;28;20173;-74
2023/11/26 04:28:43;;;;;;;5.70;1.10;;;;;;;4.54;100.00;102143.34;5029412;28;20184;-73
2023/11/26 04:31:09;;;;;;;4.70;1.20;;;;;;;4.22;100.00;102098.19;5029224;28;20245;-73
2023/11/26 04:33:34;;;;;;;6.37;1.27;;;;;;;4.41;100.00;102140.88;5030230;28;20883;-73
2023/11/26 04:35:59;;;;;;;3.33;1.20;;;;;;;3.95;100.00;102057.03;5031654;28;20774;-74
2023/11/26 04:38:26;;;;;;;5.40;1.67;;;;;;;4.53;100.00;102139.03;5028341;28;20199;-73
2023/11/26 04:40:51;;;;;;;5.53;1.30;;;;;;;4.56;100.00;102136.09;5038661;28;20596;-73
2023/11/26 04:43:17;;;;;;;5.87;1.30;;;;;;;3.93;100.00;102028.91;5024674;28;20454;-73
2023/11/26 04:45:42;;;;;;;5.10;1.43;;;;;;;3.78;100.00;102017.75;5023913;28;20204;-74
2023/11/26 04:48:08;;;;;;;8.30;1.30;;;;;;;3.79;100.00;102038.88;5023548;28;20316;-73
2023/11/26 04:50:34;;;;;;;5.67;1.57;;;;;;;4.42;100.00;102147.88;5024726;28;20628;-74
2023/11/26 04:53:00;;;;;;;4.53;1.40;;;;;;;3.88;100.00;102053.19;5023970;28;20600;-73
2023/11/26 04:55:25;;;;;;;5.43;1.37;;;;;;;3.73;100.00;102031.41;5023571;28;20226;-73
2023/11/26 04:57:50;;;;;;;6.33;2.00;;;;;;;4.09;100.00;102055.91;5024023;28;20209;-73
2023/11/26 05:00:16;;;;;;;7.40;2.13;;;;;;;4.45;100.00;102133.50;5026021;28;20192;-73
2023/11/26 05:02:42;;;;;;;4.70;1.77;;;;;;;4.46;100.00;102151.97;5023312;28;20183;-73
2023/11/26 05:05:10;;;;;;;4.60;1.80;;;;;;;4.60;100.00;102173.88;5024280;28;20444;-73
2023/11/26 05:07:39;;;;;;;4.73;1.37;;;;;;;4.54;100.00;102159.28;5023182;28;20182;-74
2023/11/26 05:10:09;;;;;;;8.00;2.13;;;;;;;4.50;100.00;102187.09;5028132;28;20791;-74
2023/11/26 05:12:35;;;;;;;6.93;1.40;;;;;;;4.36;100.00;102158.16;5030517;28;20438;-73
2023/11/26 05:15:01;;;;;;;3.80;1.33;;;;;;;3.75;100.00;102048.03;5026580;28;20455;-73
2023/11/26 05:17:26;;;;;;;6.30;1.60;;;;;;;4.05;100.00;102111.06;5026097;28;20515;-73
2023/11/26 05:19:52;;;;;;;5.63;1.50;;;;;;;4.35;100.00;102140.56;5028941;28;20531;-73
2023/11/26 05:22:17;;;;;;;8.43;2.30;;;;;;;4.00;100.00;102113.25;5024793;28;20586;-73
2023/11/26 05:24:43;;;;;;;4.13;1.50;;;;;;;4.21;100.00;102115.94;5025857;28;20211;-73
2023/11/26 05:27:09;;;;;;;4.70;1.50;;;;;;;3.87;100.00;102086.00;5026112;28;20557;-73
2023/11/26 05:29:35;;;;;;;9.63;1.60;;;;;;;4.50;100.00;102160.53;5026754;28;20215;-74
2023/11/26 05:32:00;;;;;;;5.87;1.43;;;;;;;4.50;100.00;102152.56;5026381;28;20230;-73
2023/11/26 05:34:26;;;;;;;5.17;1.87;;;;;;;4.21;100.00;102105.34;5022569;28;20459;-73
2023/11/26 05:36:51;;;;;;;5.50;1.47;;;;;;;4.22;100.00;102096.41;5023987;28;20185;-73
2023/11/26 05:39:17;;;;;;;7.17;1.50;;;;;;;4.23;100.00;102087.47;5025138;28;20589;-74
2023/11/26 05:41:42;;;;;;;6.40;1.83;;;;;;;4.35;100.00;102111.34;5028650;28;20188;-73
2023/11/26 05:44:09;;;;;;;8.60;1.63;;;;;;;4.10;100.00;102065.53;5026107;28;20201;-74
2023/11/26 05:46:34;;;;;;;7.30;1.80;;;;;;;4.34;100.00;102118.47;5029434;28;20184;-74
2023/11/26 05:49:00;;;;;;;5.10;1.70;;;;;;;4.29;100.00;102094.91;5025689;28;20500;-74
2023/11/26 05:51:27;;;;;;;7.23;1.77;;;;;;;3.74;100.00;102029.59;5030232;28;20185;-73
2023/11/26 05:53:53;;;;;;;5.33;1.63;;;;;;;4.23;100.00;102132.63;5027720;28;20506;-74
2023/11/26 05:56:18;;;;;;;6.50;2.20;;;;;;;4.32;100.00;102131.03;5022687;28;20435;-73
2023/11/26 05:58:44;;;;;;;4.20;2.13;;;;;;;4.12;100.00;102073.38;5030877;28;20435;-74
2023/11/26 06:01:10;;;;;;;15.70;2.47;;;;;;;4.22;100.00;102091.09;5029392;28;20181;-74
2023/11/26 06:03:36;;;;;;;7.80;1.67;;;;;;;4.40;100.00;102112.63;5024661;28;20263;-73
2023/11/26 06:06:03;;;;;;;3.70;1.50;;;;;;;3.94;100.00;102028.81;5025685;28;20423;-73
2023/11/26 06:08:29;;;;;;;4.03;1.50;;;;;;;4.20;100.00;102085.06;5025774;28;20434;-74
2023/11/26 06:10:54;;;;;;;6.10;1.43;;;;;;;4.62;100.00;102119.66;5026383;28;20442;-74
2023/11/26 06:13:20;;;;;;;4.93;1.63;;;;;;;3.85;100.00;102014.47;5029321;28;20561;-73
2023/11/26 06:15:45;;;;;;;6.90;1.77;;;;;;;3.93;100.00;102003.19;5024032;28;20216;-74
2023/11/26 06:18:11;;;;;;;4.50;1.23;;;;;;;4.59;100.00;102119.91;5023935;28;20552;-73
2023/11/26 06:20:36;;;;;;;5.97;1.67;;;;;;;4.06;100.00;102045.53;5023567;28;20538;-74
2023/11/26 06:23:02;;;;;;;5.20;1.97;;;;;;;4.60;100.00;102120.75;5024686;28;20181;-73
2023/11/26 06:25:27;;;;;;;6.33;1.43;;;;;;;4.65;100.00;102142.47;5019362;28;20883;-74
2023/11/26 06:27:53;;;;;;;6.40;1.87;;;;;;;4.71;100.00;102152.59;5025617;28;20473;-73
2023/11/26 06:30:18;;;;;;;5.87;1.40;;;;;;;4.04;100.00;102047.47;5023827;28;20195;-73
2023/11/26 06:32:44;;;;;;;4.63;1.43;;;;;;;4.66;100.00;102154.81;5029279;28;20180;-73
2023/11/26 06:35:09;;;;;;;4.10;1.40;;;;;;;4.20;100.00;102077.09;5027224;28;20208;-73
2023/11/26 06:37:36;;;;;;;5.93;1.40;;;;;;;4.29;100.00;102110.03;5025578;28;20609;-74
2023/11/26 06:40:04;;;;;;;8.77;2.23;;;;;;;4.70;100.00;102149.09;5039402;28;20231;-74
2023/11/26 06:42:29;;;;;;;7.07;1.80;;;;;;;4.57;100.00;102142.25;5025303;28;20778;-74
2023/11/26 06:44:56;;;;;;;6.97;1.80;;;;;;;4.08;100.00;102038.28;5025339;28;21014;-73
2023/11/26 06:47:22;;;;;;;5.20;1.57;;;;;;;4.29;100.00;102071.03;5025552;28;20677;-73
2023/11/26 06:49:47;;;;;;;6.83;1.60;;;;;;;4.58;100.00;102136.00;5025911;28;20423;-74
2023/11/26 06:52:12;;;;;;;7.70;1.50;;;;;;;4.61;100.00;102141.06;5024658;28;20251;-74
2023/11/26 06:54:38;;;;;;;6.80;1.57;;;;;;;4.63;100.00;102131.13;5023277;28;20208;-73
2023/11/26 06:57:04;;;;;;;5.03;1.50;;;;;;;4.70;100.00;102137.63;5020541;28;20238;-73
2023/11/26 06:59:29;;;;;;;9.60;1.60;;;;;;;4.30;100.00;102082.47;5024106;28;20184;-73
2023/11/26 07:01:54;;;;;;;10.43;2.00;;;;;;;4.45;100.00;102109.59;5023902;28;20215;-73
2023/11/26 07:04:20;;;;;;;7.70;2.13;;;;;;;3.84;100.00;102001.31;5023539;28;20200;-73
2023/11/26 07:06:45;;;;;;;6.43;1.47;;;;;;;4.21;100.00;102078.78;5024809;28;20177;-73
2023/11/26 07:09:11;;;;;;;10.57;1.73;;;;;;;4.65;100.00;102115.88;5027555;28;20184;-73
2023/11/26 07:11:36;;;;;;;7.30;2.07;;;;;;;4.19;100.00;102042.69;5024290;28;20180;-73
2023/11/26 07:14:02;;;;;;;7.13;1.57;;;;;;;4.61;100.00;102087.91;5024843;28;20227;-73
2023/11/26 07:16:27;;;;;;;5.63;1.30;;;;;;;4.67;100.00;102112.13;5024410;28;20716;-73
2023/11/26 07:18:53;;;;;;;5.87;2.23;;;;;;;4.37;100.00;102081.03;5023908;28;20250;-73
2023/11/26 07:21:19;;;;;;;6.30;1.60;;;;;;;4.12;100.00;102037.06;5025275;28;20188;-73
2023/11/26 07:23:46;;;;;;;7.47;1.90;;;;;;;4.39;100.00;102067.59;5022486;28;20260;-73
2023/11/26 07:26:14;;;;;;;4.30;1.40;;;;;;;4.37;100.00;102102.28;5026591;28;20470;-73
2023/11/26 07:28:40;;;;;;;6.30;1.60;;;;;;;4.67;100.00;102159.97;5022902;28;20424;-73
2023/11/26 07:31:16;;;;;;;5.57;1.53;;;;;;;4.73;100.00;102167.44;5024365;28;20459;-73
2023/11/26 07:33:41;;;;;;;6.80;1.43;;;;;;;4.19;100.00;102088.66;5022292;28;20184;-74
2023/11/26 07:36:14;;;;;;;6.57;1.30;;;;;;;4.62;100.00;102156.00;5023653;28;20504;-74
2023/11/26 07:38:41;;;;;;;9.40;2.20;;;;;;;4.87;100.00;102186.72;5029517;28;20196;-73
2023/11/26 07:41:08;;;;;;;5.20;1.33;;;;;;;4.73;100.00;102198.50;5029190;28;20440;-73
2023/11/26 07:43:37;;;;;;;6.80;1.63;;;;;;;4.44;100.00;102137.13;5028042;28;20486;-74
2023/11/26 07:46:04;;;;;;;7.50;1.30;;;;;;;4.36;100.00;102126.28;5028674;28;20442;-73
2023/11/26 07:48:29;;;;;;;8.00;1.30;;;;;;;4.91;100.00;102202.25;5026661;28;20445;-73
2023/11/26 07:50:55;;;;;;;3.90;1.30;;;;;;;4.62;100.00;102140.91;5025701;28;20431;-73
2023/11/26 07:53:24;;;;;;;8.57;2.30;;;;;;;4.38;100.00;102088.00;5021670;28;20247;-74
2023/11/26 07:55:54;;;;;;;4.50;1.10;;;;;;;4.77;100.00;102146.75;5024034;28;20218;-74
2023/11/26 07:58:22;;;;;;;6.67;1.50;;;;;;;4.48;100.00;102114.63;5026787;28;21558;-73
2023/11/26 08:00:48;;;;;;;8.23;1.67;;;;;;;4.44;100.00;102097.28;5024420;28;20817;-73
2023/11/26 08:03:15;;;;;;;7.97;1.10;;;;;;;4.38;100.00;102076.53;5023614;28;20539;-73
2023/11/26 08:05:41;;;;;;;7.17;1.20;;;;;;;5.15;100.00;102193.19;5025082;28;20459;-74
2023/11/26 08:08:06;;;;;;;3.47;1.00;;;;;;;4.58;100.00;102096.13;5022850;28;20930;-73
2023/11/26 08:10:33;;;;;;;5.90;1.53;;;;;;;5.16;100.00;102186.91;5024355;28;20224;-73
2023/11/26 08:12:59;;;;;;;6.10;1.40;;;;;;;4.91;100.00;102133.13;5025449;28;20651;-74
2023/11/26 08:15:27;;;;;;;7.73;1.50;;;;;;;5.27;100.00;102176.22;5024643;28;20549;-73
2023/11/26 08:17:55;;;;;;;5.67;1.00;;;;;;;5.30;100.00;102177.78;5034715;28;20779;-73
2023/11/26 08:20:21;;;;;;;5.53;0.90;;;;;;;5.30;100.00;102180.44;5027213;28;21181;-73
2023/11/26 08:22:48;;;;;;;5.07;1.03;;;;;;;5.30;100.00;102175.94;5022945;28;20446;-72
2023/11/26 08:25:17;;;;;;;4.83;1.00;;;;;;;5.23;100.00;102153.47;5021998;28;20471;-72
2023/11/26 08:27:45;;;;;;;4.83;1.03;;;;;;;5.31;100.00;102166.97;5025696;28;20438;-72
2023/11/26 08:30:30;;;;;;;8.67;1.20;;;;;;;5.06;100.00;102117.69;5023173;28;20549;-72
2023/11/26 08:33:01;;;;;;;5.20;1.20;;;;;;;5.38;100.00;102173.47;5021831;28;20515;-72
2023/11/26 08:35:29;;;;;;;4.83;1.30;;;;;;;5.43;100.00;102171.22;5022304;28;20550;-72
2023/11/26 08:38:00;;;;;;;4.63;1.50;;;;;;;5.24;100.00;102128.59;5022595;28;20456;-72
2023/11/26 08:40:25;;;;;;;5.77;1.73;;;;;;;5.27;100.00;102123.00;5026921;28;20443;-72
2023/11/26 08:42:54;;;;;;;6.50;1.17;;;;;;;5.46;100.00;102163.97;5023503;28;21015;-73
2023/11/26 08:45:20;;;;;;;9.90;1.50;;;;;;;5.49;100.00;102163.69;5028475;28;20845;-73
2023/11/26 08:47:47;;;;;;;7.53;1.37;;;;;;;5.49;100.00;102164.53;5033383;28;20447;-73
2023/11/26 08:50:13;;;;;;;4.80;1.30;;;;;;;5.35;100.00;102141.81;5023719;28;20453;-72
2023/11/26 08:52:39;;;;;;;8.97;1.43;;;;;;;4.88;100.00;102063.44;5026111;28;20510;-75
2023/11/26 08:55:05;;;;;;;4.50;1.03;;;;;;;5.14;100.00;102069.16;5034435;28;20539;-72
2023/11/26 08:57:31;;;;;;;6.70;1.43;;;;;;;5.16;100.00;102057.41;5036358;28;20188;-72
2023/11/26 08:59:57;;;;;;;5.17;1.10;;;;;;;5.51;100.00;102096.06;5025697;28;20469;-72
2023/11/26 09:02:25;;;;;;;4.53;1.20;;;;;;;5.74;100.00;102135.78;5023530;28;21444;-73
2023/11/26 09:04:51;;;;;;;3.60;1.10;;;;;;;5.68;100.00;102147.81;5024899;28;20510;-73
2023/11/26 09:07:17;;;;;;;4.93;1.07;;;;;;;5.84;100.00;102131.31;5023823;28;20423;-72
2023/11/26 09:09:43;;;;;;;5.83;0.90;;;;;;;5.78;100.00;102111.41;5020364;28;20424;-72
2023/11/26 09:12:09;;;;;;;5.80;1.00;;;;;;;5.82;100.00;102112.84;5023082;28;20443;-73
2023/11/26 09:14:34;;;;;;;11.10;1.93;;;;;;;5.65;100.00;102082.38;5018519;28;20220;-72
2023/11/26 09:17:00;;;;;;;5.17;0.90;;;;;;;5.75;100.00;102103.69;5024016;28;20207;-72
2023/11/26 09:19:27;;;;;;;6.30;1.20;;;;;;;5.65;100.00;102069.06;5025084;28;20230;-73
2023/11/26 09:21:52;;;;;;;5.60;1.37;;;;;;;5.42;100.00;102031.19;5021100;28;20184;-73
2023/11/26 09:24:18;;;;;;;6.07;1.50;;;;;;;5.94;100.00;102124.25;5023182;28;20439;-72
2023/11/26 09:26:44;;;;;;;9.03;1.33;;;;;;;5.61;100.00;102088.09;5022990;28;20189;-72
2023/11/26 09:29:10;;;;;;;7.83;1.50;;;;;;;5.94;100.00;102137.56;5022669;28;20430;-73
2023/11/26 09:31:42;;;;;;;6.00;1.37;;;;;;;5.53;100.00;102069.34;5022102;28;20181;-73
2023/11/26 09:34:09;;;;;;;5.00;1.07;;;;;;;5.54;100.00;102071.84;5022061;28;20569;-73
2023/11/26 09:36:34;;;;;;;9.30;1.50;;;;;;;5.10;100.00;102003.94;5022589;28;20441;-73
2023/11/26 09:39:00;;;;;;;8.30;1.47;;;;;;;5.61;100.00;102094.28;5026163;28;20448;-72
2023/11/26 09:41:25;;;;;;;7.50;2.57;;;;;;;5.50;100.00;102065.13;5022305;28;20591;-72
2023/11/26 09:43:51;;;;;;;8.87;1.33;;;;;;;5.97;100.00;102137.28;5025027;28;20242;-72
2023/11/26 09:46:19;;;;;;;4.10;1.93;;;;;;;5.81;100.00;102105.81;5020788;28;20693;-73
2023/11/26 09:48:45;;;;;;;13.00;2.03;;;;;;;5.39;100.00;102043.94;5028778;28;20445;-73
2023/11/26 09:51:13;;;;;;;6.13;1.57;;;;;;;5.80;100.00;102106.78;5022883;28;20446;-72
2023/11/26 09:53:39;;;;;;;9.03;1.50;;;;;;;5.98;100.00;102135.47;5025999;28;20729;-72
2023/11/26 09:56:09;;;;;;;8.20;1.00;;;;;;;5.80;100.00;102105.97;5022409;28;20438;-73
2023/11/26 09:58:38;;;;;;;9.80;2.20;;;;;;;5.61;100.00;102058.81;5025781;28;20492;-73
2023/11/26 10:01:06;;;;;;;7.27;1.67;;;;;;;5.81;100.00;102079.19;5021734;28;20435;-73
2023/11/26 10:03:31;;;;;;;5.53;1.53;;;;;;;5.74;100.00;102072.72;5020362;28;20453;-72
2023/11/26 10:06:09;;;;;;;9.70;1.67;;;;;;;5.41;100.00;102010.06;5023087;28;20451;-72
2023/11/26 10:08:36;;;;;;;7.53;1.87;;;;;;;6.03;100.00;102095.94;5022933;28;20188;-73
2023/11/26 10:11:02;;;;;;;7.20;1.40;;;;;;;5.92;100.00;102069.41;5021608;28;20431;-73
2023/11/26 10:13:36;;;;;;;6.57;1.40;;;;;;;5.94;100.00;102083.47;5023304;28;20431;-73
2023/11/26 10:16:01;;;;;;;6.17;1.87;;;;;;;5.57;100.00;102006.84;5020303;28;20450;-73
2023/11/26 10:18:39;;;;;;;7.00;1.77;;;;;;;5.94;100.00;102064.81;5019460;28;20428;-74
2023/11/26 10:21:05;;;;;;;8.03;1.50;;;;;;;5.62;100.00;102013.44;5019920;28;20188;-73
2023/11/26 10:23:36;;;;;;;5.70;1.47;;;;;;;6.07;100.00;102066.22;5021847;28;21007;-73
2023/11/26 10:26:04;;;;;;;11.40;3.47;;;;;;;6.27;100.00;102101.69;5021173;28;20267;-73
2023/11/26 10:28:30;;;;;;;8.40;1.93;;;;;;;6.26;100.00;102100.03;5022820;28;20496;-72
2023/11/26 10:31:05;;;;;;;17.60;2.57;;;;;;;5.70;100.00;102017.22;5020820;28;20874;-73
2023/11/26 10:33:31;;;;;;;10.20;5.90;;;;;;;6.38;100.00;102095.41;5024624;28;20456;-73
2023/11/26 10:35:56;;;;;;;8.07;2.27;;;;;;;5.77;100.00;102016.53;5028288;28;20474;-73
2023/11/26 10:38:33;;;;;;;10.73;3.40;;;;;;;6.34;100.00;102102.84;5021109;28;20239;-72
2023/11/26 10:40:59;;;;;;;11.13;2.40;;;;;;;6.31;100.00;102072.97;5021724;28;20189;-72
2023/11/26 10:43:26;;;;;;;12.37;3.30;;;;;;;5.89;100.00;102009.25;5024576;28;21164;-72
2023/11/26 10:45:55;;;;;;;8.23;2.63;;;;;;;6.51;100.00;102093.31;5020863;28;20200;-73
2023/11/26 10:48:23;;;;;;;9.80;4.73;;;;;;;6.51;100.00;102092.47;5017075;28;20435;-74
2023/11/26 10:51:25;;;;;;;9.63;3.80;;;;;;;6.60;100.00;102098.78;5020841;28;20530;-74
2023/11/26 10:54:08;;;;;;;8.07;2.93;;;;;;;6.39;100.00;102088.25;4979454;28;20439;-74
2023/11/26 10:56:39;;;;;;;10.87;2.30;;;;;;;5.92;100.00;102040.94;5019822;28;20457;-73
2023/11/26 10:59:14;;;;;;;10.10;1.50;;;;;;;5.77;100.00;102013.03;5020163;28;20586;-73
2023/11/26 11:01:41;;;;;;;7.10;0.97;;;;;;;6.09;100.00;102077.56;5020983;28;20442;-72
2023/11/26 11:04:13;;;;;;;6.87;1.20;;;;;;;6.06;100.00;102064.53;5023834;28;20466;-73
2023/11/26 11:06:39;;;;;;;8.00;1.53;;;;;;;5.98;100.00;102053.72;5018463;28;20448;-73
2023/11/26 11:09:04;;;;;;;7.60;2.33;;;;;;;6.36;100.00;102113.34;5022118;28;20443;-72
2023/11/26 11:12:11;;;;;;;5.07;1.80;;;;;;;6.19;100.00;102085.59;5021824;28;20196;-73
2023/11/26 11:14:37;;;;;;;7.17;2.00;;;;;;;6.08;100.00;102086.56;4943057;28;20219;-72
2023/11/26 11:17:03;;;;;;;8.70;1.30;;;;;;;5.90;100.00;102008.28;4944802;28;20913;-72
2023/11/26 11:19:49;;;;;;;6.63;1.60;;;;;;;6.13;100.00;102064.81;4982469;28;20439;-72
2023/11/26 11:22:15;;;;;;;7.50;2.20;;;;;;;5.75;100.00;101991.03;5020516;28;20437;-73
2023/11/26 11:24:40;;;;;;;5.80;1.70;;;;;;;6.36;100.00;102096.50;5022546;28;20462;-72